Terminal Aerodrome Forecast
Issued by NWS Wilmington, OH

Current Version | Previous Version | Text Only | Print | Product List | Glossary Off
Versions: 1 2 3 4 5 6 7 8 9 10 11 12 13 14 15 16 17 18 19 20 21 22 23 24 25 26

233
FTUS41 KILN 181750
TAFCVG
TAF
KCVG 181750Z 1818/1924 16007KT P6SM BKN250
     FM190600 17008KT P6SM BKN080 WS020/20045KT
     FM190900 19008KT P6SM VCSH OVC022 WS020/22045KT
     FM191100 19009KT 4SM -SHRA OVC012 WS020/22045KT
     FM191500 20012KT P6SM OVC015
     FM191800 20012G20KT P6SM BKN025=

USA.gov is the U.S. government's official web portal to all federal, state and local government web resources and services.